createdAt,value
2023-02-22T00:01:21.962Z,51.58
2023-02-22T00:03:52.451Z,60.08
2023-02-22T00:06:19.719Z,62.28
2023-02-22T00:08:47.530Z,78.35
2023-02-22T00:11:15.035Z,80.10
2023-02-22T00:13:45.080Z,87.38
2023-02-22T00:16:16.289Z,75.25
2023-02-22T00:18:42.856Z,90.03
2023-02-22T00:21:10.732Z,80.85
2023-02-22T00:23:39.906Z,78.38
2023-02-22T00:26:09.967Z,72.72
2023-02-22T00:28:37.393Z,70.30
2023-02-22T00:31:06.763Z,63.67
2023-02-22T00:33:33.480Z,68.63
2023-02-22T00:36:00.199Z,62.45
2023-02-22T00:38:26.639Z,57.42
2023-02-22T00:40:53.231Z,54.33
2023-02-22T00:43:19.680Z,47.22
2023-02-22T00:45:46.206Z,53.60
2023-02-22T00:48:13.304Z,48.78
2023-02-22T00:50:39.844Z,47.53
2023-02-22T00:53:07.476Z,42.47
2023-02-22T00:55:36.412Z,46.03
2023-02-22T00:58:03.569Z,55.47
2023-02-22T01:00:30.006Z,49.30
2023-02-22T01:02:57.013Z,47.33
2023-02-22T01:05:25.172Z,46.13
2023-02-22T01:07:51.824Z,57.05
2023-02-22T01:10:19.877Z,59.85
2023-02-22T01:12:47.124Z,63.95
2023-02-22T01:15:14.092Z,58.58
2023-02-22T01:17:41.665Z,57.47
2023-02-22T01:20:12.823Z,60.38
2023-02-22T01:22:40.495Z,62.38
2023-02-22T01:25:07.521Z,55.63
2023-02-22T01:27:35.037Z,61.85
2023-02-22T01:30:02.224Z,59.72
2023-02-22T01:32:28.774Z,49.58
2023-02-22T01:34:55.191Z,49.40
2023-02-22T01:37:21.599Z,43.67
2023-02-22T01:39:48.039Z,43.05
2023-02-22T01:42:14.471Z,48.60
2023-02-22T01:44:41.578Z,43.38
2023-02-22T01:47:10.906Z,40.08
2023-02-22T01:49:47.738Z,35.90
2023-02-22T01:52:16.895Z,37.25
2023-02-22T01:54:46.360Z,39.92
2023-02-22T01:57:18.152Z,44.22
2023-02-22T02:02:11.467Z,34.45
2023-02-22T02:04:38.164Z,42.58
2023-02-22T02:07:07.644Z,41.25
2023-02-22T02:09:40.207Z,46.08
2023-02-22T02:12:08.611Z,44.28
2023-02-22T02:14:40.395Z,50.40
2023-02-22T02:19:33.689Z,47.65
2023-02-22T02:22:10.385Z,38.58
2023-02-22T02:24:39.741Z,55.35
2023-02-22T02:27:06.439Z,55.67
2023-02-22T02:29:50.334Z,49.25
2023-02-22T02:32:26.051Z,55.63
2023-02-22T02:35:11.833Z,48.10
2023-02-22T02:37:57.824Z,45.28
2023-02-22T02:40:24.296Z,43.00
2023-02-22T02:42:53.722Z,43.60
2023-02-22T02:45:24.865Z,54.10
2023-02-22T02:47:54.492Z,57.22
2023-02-22T02:50:23.565Z,47.20
2023-02-22T02:52:51.412Z,55.85
2023-02-22T02:55:18.171Z,46.20
2023-02-22T02:57:45.085Z,43.35
2023-02-22T03:00:25.329Z,49.58
2023-02-22T03:03:02.416Z,55.03
2023-02-22T03:05:59.580Z,63.50
2023-02-22T03:08:32.095Z,51.20
2023-02-22T03:10:58.823Z,66.68
2023-02-22T03:13:31.098Z,67.50
2023-02-22T03:16:15.391Z,61.33
2023-02-22T03:18:47.975Z,61.58
2023-02-22T03:21:23.860Z,61.80
2023-02-22T03:24:09.788Z,56.95
2023-02-22T03:26:41.635Z,59.38
2023-02-22T03:31:37.942Z,56.70
2023-02-22T03:34:08.683Z,62.45
2023-02-22T03:36:39.106Z,72.07
2023-02-22T03:39:07.764Z,62.03
2023-02-22T03:41:35.207Z,70.43
2023-02-22T03:44:06.795Z,59.28
2023-02-22T03:46:35.214Z,58.30
2023-02-22T03:49:10.631Z,72.63
2023-02-22T03:51:37.129Z,74.28
2023-02-22T03:54:04.250Z,63.80
2023-02-22T03:56:36.008Z,65.00
2023-02-22T03:59:06.997Z,61.08
2023-02-22T04:01:33.600Z,72.40
2023-02-22T04:04:00.499Z,57.58
2023-02-22T04:06:27.432Z,71.07
2023-02-22T04:08:53.856Z,57.95
2023-02-22T04:11:20.468Z,65.68
2023-02-22T04:13:46.912Z,68.93
2023-02-22T04:16:13.416Z,65.15
2023-02-22T04:18:39.964Z,78.60
2023-02-22T04:21:06.488Z,74.13
2023-02-22T04:23:32.984Z,59.85
2023-02-22T04:25:59.461Z,62.78
2023-02-22T04:28:25.950Z,58.50
2023-02-22T04:30:52.406Z,62.63
2023-02-22T04:33:18.956Z,54.05
2023-02-22T04:35:45.539Z,53.03
2023-02-22T04:38:11.956Z,53.05
2023-02-22T04:40:38.571Z,59.78
2023-02-22T04:43:05.048Z,52.55
2023-02-22T04:45:31.611Z,51.08
2023-02-22T04:47:58.166Z,53.45
2023-02-22T04:50:24.761Z,58.22
2023-02-22T04:52:51.276Z,53.45
2023-02-22T04:55:17.842Z,48.22
2023-02-22T04:57:44.298Z,46.08
2023-02-22T05:00:11.334Z,45.10
2023-02-22T05:02:40.986Z,46.22
2023-02-22T05:05:07.493Z,50.20
2023-02-22T05:07:34.011Z,46.33
2023-02-22T05:10:02.947Z,48.25
2023-02-22T05:12:29.477Z,46.63
2023-02-22T05:14:56.053Z,38.05
2023-02-22T05:17:22.481Z,41.95
2023-02-22T05:19:48.907Z,38.65
2023-02-22T05:22:15.396Z,41.60
2023-02-22T05:24:41.820Z,39.63
2023-02-22T05:27:08.305Z,38.10
2023-02-22T05:29:34.732Z,47.45
2023-02-22T05:32:02.778Z,40.70
2023-02-22T05:34:29.274Z,49.42
2023-02-22T05:36:55.747Z,51.17
2023-02-22T05:39:22.323Z,42.15
2023-02-22T05:41:48.852Z,45.28
2023-02-22T05:44:15.370Z,46.97
2023-02-22T05:46:41.919Z,52.28
2023-02-22T05:49:08.453Z,51.90
2023-02-22T05:51:35.035Z,48.63
2023-02-22T05:54:01.484Z,54.05
2023-02-22T05:56:29.003Z,52.28
2023-02-22T05:58:56.028Z,48.35
2023-02-22T06:01:22.977Z,47.67
2023-02-22T06:03:50.145Z,48.88
2023-02-22T06:06:17.273Z,45.22
2023-02-22T06:08:43.987Z,42.85
2023-02-22T06:11:10.722Z,46.67
2023-02-22T06:13:37.211Z,42.72
2023-02-22T06:16:04.260Z,50.33
2023-02-22T06:18:31.354Z,47.10
2023-02-22T06:20:58.470Z,42.92
2023-02-22T06:23:25.452Z,45.88
2023-02-22T06:25:52.181Z,42.30
2023-02-22T06:28:18.732Z,44.38
2023-02-22T06:30:45.391Z,50.42
2023-02-22T06:33:12.029Z,55.42
2023-02-22T06:35:38.472Z,41.75
2023-02-22T06:38:04.879Z,51.53
2023-02-22T06:40:31.428Z,44.53
2023-02-22T06:42:58.301Z,51.92
2023-02-22T06:45:24.844Z,49.03
2023-02-22T06:47:51.351Z,43.25
2023-02-22T06:50:22.606Z,45.50
2023-02-22T06:52:49.154Z,33.20
2023-02-22T06:55:19.236Z,47.53
2023-02-22T06:57:45.716Z,52.70
2023-02-22T07:00:12.474Z,45.33
2023-02-22T07:02:39.007Z,50.28
2023-02-22T07:05:05.649Z,54.25
2023-02-22T07:07:32.221Z,49.35
2023-02-22T07:09:58.837Z,52.63
2023-02-22T07:12:25.324Z,46.15
2023-02-22T07:14:54.696Z,54.85
2023-02-22T07:17:21.081Z,61.90
2023-02-22T07:19:47.612Z,52.15
2023-02-22T07:22:14.070Z,50.17
2023-02-22T07:24:41.212Z,48.80
2023-02-22T07:27:07.677Z,54.05
2023-02-22T07:29:36.122Z,46.47
2023-02-22T07:32:03.021Z,61.22
2023-02-22T07:34:29.492Z,50.33
2023-02-22T07:36:55.964Z,55.90
2023-02-22T07:39:22.461Z,56.03
2023-02-22T07:41:49.829Z,56.50
2023-02-22T07:44:16.351Z,53.40
2023-02-22T07:46:46.647Z,53.53
2023-02-22T07:49:13.111Z,58.40
2023-02-22T07:51:39.616Z,56.50
2023-02-22T07:54:06.085Z,54.88
2023-02-22T07:56:32.637Z,52.65
2023-02-22T07:58:59.181Z,51.20
2023-02-22T08:23:28.781Z,50.17
2023-02-22T08:28:23.619Z,45.03
2023-02-22T16:18:52.221Z,10.65
2023-02-22T16:23:52.356Z,12.55
2023-02-22T16:29:05.090Z,16.50
2023-02-22T16:31:36.899Z,9.95
2023-02-22T16:36:45.967Z,15.48
2023-02-22T16:39:19.069Z,14.30
2023-02-22T16:41:45.728Z,23.90
2023-02-22T16:44:13.083Z,11.85
2023-02-22T16:46:41.888Z,13.88
2023-02-22T16:49:12.256Z,16.27
2023-02-22T16:51:59.357Z,15.30
2023-02-22T16:54:26.911Z,13.27
2023-02-22T16:56:55.700Z,15.05
2023-02-22T16:59:22.509Z,20.67
2023-02-22T17:01:49.043Z,18.48
2023-02-22T17:04:25.724Z,21.77
2023-02-22T17:06:53.020Z,19.35
2023-02-22T17:09:22.829Z,19.27
2023-02-22T17:11:50.276Z,21.85
2023-02-22T17:14:18.140Z,24.65
2023-02-22T17:16:47.022Z,22.98
2023-02-22T17:19:17.765Z,20.20
2023-02-22T17:21:44.254Z,22.25
2023-02-22T17:24:14.261Z,24.80
2023-02-22T17:26:41.239Z,22.98
2023-02-22T17:29:07.639Z,34.20
2023-02-22T17:31:34.256Z,49.05
2023-02-22T17:34:02.200Z,36.50
2023-02-22T17:36:29.272Z,30.50
2023-02-22T17:38:55.933Z,23.40
2023-02-22T17:41:22.389Z,23.48
2023-02-22T17:43:49.149Z,19.20
2023-02-22T17:46:16.072Z,18.85
2023-02-22T17:48:42.937Z,23.05
2023-02-22T17:51:10.732Z,16.48
2023-02-22T17:53:37.709Z,16.05
2023-02-22T17:56:11.024Z,15.40
2023-02-22T17:58:37.451Z,16.48
2023-02-22T18:01:04.245Z,13.30
2023-02-22T18:03:31.058Z,24.98
2023-02-22T18:05:58.813Z,29.90
2023-02-22T18:08:26.439Z,26.98
2023-02-22T18:10:56.348Z,26.42
2023-02-22T18:13:24.508Z,25.52
2023-02-22T18:15:51.399Z,35.55
2023-02-22T18:18:17.960Z,42.45
2023-02-22T18:20:46.527Z,36.17
2023-02-22T18:23:14.458Z,32.50
2023-02-22T18:25:57.155Z,35.33
2023-02-22T18:28:31.239Z,35.85
2023-02-22T18:30:59.278Z,120.20
2023-02-22T18:33:26.295Z,142.23
2023-02-22T18:35:52.902Z,140.27
2023-02-22T18:38:23.778Z,119.40
2023-02-22T18:40:58.335Z,115.30
2023-02-22T18:43:24.836Z,99.63
2023-02-22T18:45:51.328Z,109.97
2023-02-22T18:48:17.905Z,133.13
2023-02-22T18:50:44.424Z,132.73
2023-02-22T18:53:11.092Z,117.88
2023-02-22T18:55:37.549Z,110.18
2023-02-22T18:58:04.929Z,108.85
2023-02-22T19:00:34.562Z,91.65
2023-02-22T19:03:01.327Z,90.15
2023-02-22T19:05:27.828Z,103.65
2023-02-22T19:07:54.272Z,97.75
2023-02-22T19:10:22.549Z,77.88
2023-02-22T19:12:48.997Z,81.00
2023-02-22T19:15:15.441Z,83.90
2023-02-22T19:17:42.891Z,81.53
2023-02-22T19:20:10.732Z,80.78
2023-02-22T19:25:04.678Z,76.45
2023-02-22T19:27:31.355Z,77.32
2023-02-22T19:29:57.820Z,71.32
2023-02-22T19:32:24.637Z,88.63
2023-02-22T19:34:53.108Z,81.93
2023-02-22T19:37:22.746Z,82.10
2023-02-22T19:39:49.346Z,79.50
2023-02-22T19:42:15.887Z,84.25
2023-02-22T19:44:42.378Z,81.47
2023-02-22T19:47:10.154Z,77.35
2023-02-22T19:49:37.627Z,84.28
2023-02-22T19:52:06.556Z,89.95
2023-02-22T19:54:34.366Z,100.45
2023-02-22T19:57:01.008Z,112.40
2023-02-22T19:59:27.515Z,101.90
2023-02-22T20:01:55.926Z,115.55
2023-02-22T20:04:23.222Z,112.10
2023-02-22T20:06:51.960Z,113.95
2023-02-22T20:09:19.734Z,112.32
2023-02-22T20:11:47.078Z,117.43
2023-02-22T20:14:18.706Z,108.53
2023-02-22T20:16:45.360Z,111.53
2023-02-22T20:19:13.678Z,122.82
2023-02-22T20:21:40.467Z,112.13
2023-02-22T20:24:08.498Z,110.18
2023-02-22T20:26:36.357Z,112.32
2023-02-22T20:29:04.247Z,97.47
2023-02-22T20:31:31.604Z,86.43
2023-02-22T20:33:59.344Z,85.13
2023-02-22T20:36:26.540Z,82.05
2023-02-22T20:38:55.979Z,79.28
2023-02-22T20:41:26.862Z,78.65
2023-02-22T20:43:53.885Z,84.03
2023-02-22T20:46:20.413Z,81.85
2023-02-22T20:48:47.177Z,85.68
2023-02-22T20:51:14.832Z,85.78
2023-02-22T20:53:41.885Z,90.00
2023-02-22T20:56:15.570Z,90.00
2023-02-22T20:58:42.270Z,91.28
2023-02-22T21:01:12.161Z,84.47
2023-02-22T21:03:38.985Z,93.82
2023-02-22T21:06:05.790Z,100.47
2023-02-22T21:08:32.645Z,101.75
2023-02-22T21:10:59.740Z,99.95
2023-02-22T21:13:26.266Z,86.38
2023-02-22T21:15:52.952Z,77.13
2023-02-22T21:18:20.528Z,76.68
2023-02-22T21:20:48.386Z,76.60
2023-02-22T21:23:15.641Z,55.28
2023-02-22T21:25:51.645Z,61.75
2023-02-22T21:28:18.080Z,59.65
2023-02-22T21:30:45.584Z,60.05
2023-02-22T21:33:12.052Z,56.65
2023-02-22T21:35:40.411Z,58.25
2023-02-22T21:38:07.134Z,64.30
2023-02-22T21:40:34.357Z,55.90
2023-02-22T21:43:01.176Z,56.95
2023-02-22T21:45:27.571Z,69.85
2023-02-22T21:47:54.763Z,66.50
2023-02-22T21:50:21.400Z,76.53
2023-02-22T21:52:48.769Z,71.30
2023-02-22T21:55:15.844Z,67.22
2023-02-22T21:57:42.521Z,74.20
2023-02-22T22:00:17.008Z,66.85
2023-02-22T22:02:46.143Z,70.47
2023-02-22T22:05:17.478Z,61.47
2023-02-22T22:07:44.716Z,65.20
2023-02-22T22:10:18.774Z,67.45
2023-02-22T22:12:50.131Z,75.80
2023-02-22T22:15:16.765Z,63.20
2023-02-22T22:17:46.606Z,53.35
2023-02-22T22:20:17.056Z,53.28
2023-02-22T22:22:45.952Z,46.28
2023-02-22T22:25:13.007Z,45.25
2023-02-22T22:27:40.193Z,48.90
2023-02-22T22:30:08.033Z,44.70
2023-02-22T22:32:35.103Z,42.70
2023-02-22T22:35:01.615Z,45.17
2023-02-22T22:37:28.712Z,46.88
2023-02-22T22:39:55.432Z,41.10
2023-02-22T22:42:22.088Z,38.60
2023-02-22T22:44:50.512Z,39.22
2023-02-22T22:47:20.713Z,38.72
2023-02-22T22:49:47.922Z,33.30
2023-02-22T22:52:15.446Z,35.10
2023-02-22T22:54:43.266Z,30.85
2023-02-22T22:57:10.032Z,35.47
2023-02-22T22:59:36.704Z,28.92
2023-02-22T23:02:04.728Z,36.22
2023-02-22T23:04:31.243Z,33.55
2023-02-22T23:06:58.670Z,29.55
2023-02-22T23:09:26.553Z,33.13
2023-02-22T23:11:55.035Z,30.05
2023-02-22T23:14:25.932Z,30.73
2023-02-22T23:16:53.677Z,29.47
2023-02-22T23:19:20.273Z,28.15
2023-02-22T23:21:47.882Z,29.35
2023-02-22T23:24:17.769Z,30.95
2023-02-22T23:26:50.909Z,27.42
2023-02-22T23:29:18.201Z,27.40
2023-02-22T23:31:48.030Z,26.27
2023-02-22T23:34:15.850Z,26.35
2023-02-22T23:36:44.357Z,25.77
2023-02-22T23:39:11.555Z,21.80
2023-02-22T23:41:38.628Z,25.15
2023-02-22T23:44:08.392Z,27.70
2023-02-22T23:46:36.440Z,22.77
2023-02-22T23:49:04.204Z,29.02
2023-02-22T23:51:39.233Z,26.58
2023-02-22T23:54:09.905Z,25.10
2023-02-22T23:56:36.991Z,23.60
2023-02-22T23:59:13.570Z,28.20
